Time;durP1;ratioP1;P1;durP2;ratioP2;P2;SDS_P1;SDS_P2;PMS_P1;PMS_P2;Temp;Humidity;BMP_temperature;BMP_pressure;BME280_temperature;BME280_humidity;BME280_pressure;Samples;Min_cycle;Max_cycle;Signal;HPM_P1;HPM_P2
2022/05/01 00:00:23;;;;;;;9.53;8.63;;;11.00;99.90;;;;;;4947694;28;20225;-83
2022/05/01 00:02:50;;;;;;;9.30;8.40;;;11.00;99.90;;;;;;4943223;28;20210;-83
2022/05/01 00:05:17;;;;;;;10.23;9.23;;;11.10;99.90;;;;;;4967302;28;20197;-83
2022/05/01 00:07:46;;;;;;;10.40;8.60;;;11.00;99.90;;;;;;4966648;28;20202;-83
2022/05/01 00:10:14;;;;;;;9.37;8.50;;;10.90;99.90;;;;;;4949732;28;20218;-83
2022/05/01 00:12:42;;;;;;;9.50;8.50;;;10.70;99.90;;;;;;4966289;28;20209;-83
2022/05/01 00:15:10;;;;;;;10.43;9.37;;;10.70;99.90;;;;;;4952453;28;20213;-83
2022/05/01 00:17:37;;;;;;;10.53;9.13;;;10.80;99.90;;;;;;4967453;28;20236;-83
2022/05/01 00:20:06;;;;;;;11.80;8.70;;;10.70;99.90;;;;;;4959152;28;20226;-83
2022/05/01 00:22:34;;;;;;;10.57;7.77;;;10.80;99.90;;;;;;4963996;28;20217;-83
2022/05/01 00:25:02;;;;;;;10.47;8.40;;;10.80;99.90;;;;;;4951920;28;20205;-83
2022/05/01 00:27:31;;;;;;;9.47;8.57;;;10.90;99.90;;;;;;4948735;28;20206;-83
2022/05/01 00:29:59;;;;;;;9.87;8.87;;;10.80;99.90;;;;;;4964283;28;20234;-83
2022/05/01 00:36:25;;;;;;;10.10;9.10;;;10.90;99.90;;;;;;4947972;28;20206;-83
2022/05/01 00:38:01;;;;;;;10.07;8.23;;;10.70;99.90;;;;;;4942288;28;20222;-83
2022/05/01 00:40:30;;;;;;;9.63;7.77;;;10.70;99.90;;;;;;4948049;28;20246;-83
2022/05/01 00:43:02;;;;;;;9.27;8.37;;;10.70;99.90;;;;;;4945472;28;20205;-83
2022/05/01 00:45:29;;;;;;;9.93;8.10;;;10.70;99.90;;;;;;4947634;28;20206;-83
2022/05/01 00:47:57;;;;;;;9.63;8.23;;;10.70;99.90;;;;;;4950390;28;20214;-83
2022/05/01 00:50:25;;;;;;;8.67;7.70;;;10.70;99.90;;;;;;4952526;28;20221;-83
2022/05/01 00:52:53;;;;;;;9.40;8.23;;;10.60;99.90;;;;;;4953854;28;20205;-83
2022/05/01 00:55:22;;;;;;;9.90;8.27;;;10.50;99.90;;;;;;4969399;28;20206;-83
2022/05/01 00:57:51;;;;;;;9.53;8.30;;;10.60;99.90;;;;;;4969614;28;20226;-83
2022/05/01 01:00:19;;;;;;;10.13;8.73;;;10.50;99.90;;;;;;4955942;28;20221;-83
2022/05/01 01:02:49;;;;;;;11.43;8.43;;;10.50;99.90;;;;;;4955563;28;20221;-83
2022/05/01 01:05:17;;;;;;;9.53;7.90;;;10.60;99.90;;;;;;4954950;28;20205;-83
2022/05/01 01:07:44;;;;;;;9.37;8.37;;;10.70;99.90;;;;;;4948841;28;20209;-83
2022/05/01 01:10:12;;;;;;;10.90;8.10;;;10.70;99.90;;;;;;4955495;28;20236;-83
2022/05/01 01:12:54;;;;;;;11.20;8.97;;;10.70;99.90;;;;;;4971288;28;20216;-83
2022/05/01 01:15:25;;;;;;;10.57;8.90;;;10.60;99.90;;;;;;4954322;28;20206;-83
2022/05/01 01:17:54;;;;;;;9.67;8.67;;;10.50;99.90;;;;;;4965868;28;20212;-83
2022/05/01 01:20:24;;;;;;;9.77;8.40;;;10.40;99.90;;;;;;4954029;28;20229;-83
2022/05/01 01:22:54;;;;;;;9.50;8.60;;;10.40;99.90;;;;;;4970769;28;20652;-83
2022/05/01 01:25:23;;;;;;;11.33;8.57;;;10.40;99.90;;;;;;4956009;28;20224;-83
2022/05/01 01:27:51;;;;;;;10.10;9.00;;;10.40;99.90;;;;;;4954548;28;20206;-83
2022/05/01 01:33:05;;;;;;;10.43;8.67;;;10.20;99.90;;;;;;4954387;28;20201;-83
2022/05/01 01:35:35;;;;;;;10.33;9.20;;;10.00;99.90;;;;;;4947618;28;20215;-83
2022/05/01 01:38:04;;;;;;;11.83;8.33;;;10.00;99.90;;;;;;4953700;28;20230;-83
2022/05/01 01:40:36;;;;;;;9.63;8.63;;;9.90;99.90;;;;;;4967889;28;20226;-83
2022/05/01 01:43:06;;;;;;;9.70;8.03;;;9.60;99.90;;;;;;4951118;28;20202;-83
2022/05/01 01:45:33;;;;;;;9.70;8.47;;;9.50;99.90;;;;;;4970788;28;20205;-83
2022/05/01 01:48:10;;;;;;;10.57;8.90;;;9.60;99.90;;;;;;4968942;28;20205;-83
2022/05/01 01:50:37;;;;;;;9.83;8.37;;;9.70;99.90;;;;;;4952402;28;20209;-83
2022/05/01 01:53:07;;;;;;;12.60;9.40;;;9.70;99.90;;;;;;4955079;28;20225;-83
2022/05/01 01:55:37;;;;;;;8.93;8.03;;;9.60;99.90;;;;;;4951713;28;20202;-83
2022/05/01 01:58:05;;;;;;;9.50;8.60;;;9.60;99.90;;;;;;4957485;28;20209;-83
2022/05/01 02:00:33;;;;;;;8.70;7.80;;;9.50;99.90;;;;;;4969014;28;20236;-83
2022/05/01 02:03:03;;;;;;;10.50;8.40;;;9.60;99.90;;;;;;4968190;28;20206;-83
2022/05/01 02:05:32;;;;;;;10.47;8.20;;;9.50;99.90;;;;;;4961640;28;20660;-83
2022/05/01 02:07:59;;;;;;;8.77;7.87;;;9.40;99.90;;;;;;4955280;29;20197;-83
2022/05/01 02:10:28;;;;;;;9.53;7.67;;;9.30;99.90;;;;;;4940971;29;20214;-83
2022/05/01 02:12:56;;;;;;;9.67;8.30;;;9.30;99.90;;;;;;4954186;28;20216;-83
2022/05/01 02:15:23;;;;;;;9.43;8.30;;;9.40;99.90;;;;;;4953973;28;20213;-83
2022/05/01 02:17:51;;;;;;;9.97;8.53;;;9.30;99.90;;;;;;4952993;28;20925;-83
2022/05/01 02:20:18;;;;;;;8.83;7.83;;;9.30;99.90;;;;;;4968250;28;20228;-83
2022/05/01 02:22:46;;;;;;;9.43;8.33;;;9.30;99.90;;;;;;4969543;28;20199;-83
2022/05/01 02:25:13;;;;;;;9.37;7.80;;;9.40;99.90;;;;;;4954335;28;20209;-83
2022/05/01 02:27:42;;;;;;;9.90;8.57;;;9.40;99.90;;;;;;4951271;28;20221;-83
2022/05/01 02:30:11;;;;;;;9.07;8.17;;;9.40;99.90;;;;;;4963765;28;20592;-83
2022/05/01 02:32:39;;;;;;;9.00;8.10;;;9.30;99.90;;;;;;4954768;28;20202;-84
2022/05/01 02:35:08;;;;;;;10.53;9.17;;;9.10;99.90;;;;;;4963784;28;20209;-83
2022/05/01 02:37:36;;;;;;;9.77;8.50;;;9.00;99.90;;;;;;4967227;28;20210;-83
2022/05/01 02:40:04;;;;;;;10.77;8.40;;;9.10;99.90;;;;;;4953361;28;20229;-83
2022/05/01 02:42:32;;;;;;;10.97;8.70;;;9.00;99.90;;;;;;4968882;28;20634;-83
2022/05/01 02:45:01;;;;;;;11.07;9.00;;;9.10;99.90;;;;;;4950806;28;20209;-83
2022/05/01 02:47:28;;;;;;;10.40;9.23;;;9.10;99.90;;;;;;4942501;28;20296;-83
2022/05/01 02:49:56;;;;;;;10.10;8.93;;;9.20;99.90;;;;;;4969743;28;20221;-83
2022/05/01 02:52:23;;;;;;;10.20;9.13;;;9.10;99.90;;;;;;4971083;28;20671;-84
2022/05/01 02:54:51;;;;;;;12.07;9.83;;;8.70;99.90;;;;;;4953861;28;20220;-83
2022/05/01 02:57:18;;;;;;;9.63;8.73;;;8.70;99.90;;;;;;4959033;28;20209;-83
2022/05/01 02:59:45;;;;;;;10.30;8.73;;;8.80;99.90;;;;;;4950611;28;20217;-83
2022/05/01 03:02:18;;;;;;;12.47;9.80;;;8.70;99.90;;;;;;4961601;28;20215;-83
2022/05/01 03:04:48;;;;;;;11.23;9.77;;;8.70;99.90;;;;;;4952476;28;20209;-83
2022/05/01 03:07:16;;;;;;;9.97;8.97;;;8.50;99.90;;;;;;4968788;28;20212;-83
2022/05/01 03:09:43;;;;;;;11.07;9.10;;;8.40;99.90;;;;;;4953741;28;20583;-83
2022/05/01 03:12:11;;;;;;;11.70;8.73;;;8.40;99.90;;;;;;4950333;28;20664;-83
2022/05/01 03:14:38;;;;;;;10.57;9.10;;;8.50;99.90;;;;;;4967292;28;20201;-83
2022/05/01 03:17:06;;;;;;;11.33;9.30;;;8.70;99.90;;;;;;4950351;28;20225;-83
2022/05/01 03:22:19;;;;;;;11.23;9.33;;;8.80;99.90;;;;;;4954084;28;20215;-83
2022/05/01 03:24:47;;;;;;;10.40;9.47;;;8.70;99.90;;;;;;4952527;28;20201;-83
2022/05/01 03:27:14;;;;;;;11.43;9.23;;;8.50;99.90;;;;;;4942745;28;20209;-83
2022/05/01 03:29:41;;;;;;;12.53;9.63;;;8.40;99.90;;;;;;4952555;28;20222;-83
2022/05/01 03:32:09;;;;;;;10.47;9.47;;;8.20;99.90;;;;;;4967650;28;20202;-83
2022/05/01 03:34:39;;;;;;;12.37;9.60;;;8.10;99.90;;;;;;4950995;28;20198;-84
2022/05/01 03:37:07;;;;;;;13.43;9.10;;;8.30;99.90;;;;;;4955399;28;20680;-83
2022/05/01 03:39:35;;;;;;;10.30;9.17;;;8.30;99.90;;;;;;4951904;28;20249;-83
2022/05/01 03:42:06;;;;;;;9.77;8.77;;;8.40;99.90;;;;;;4953944;28;20209;-83
2022/05/01 03:44:34;;;;;;;10.03;9.03;;;8.40;99.90;;;;;;4950004;28;20202;-83
2022/05/01 03:47:01;;;;;;;10.03;8.97;;;8.40;99.90;;;;;;4953197;28;20213;-83
2022/05/01 03:49:29;;;;;;;10.40;9.30;;;8.30;99.90;;;;;;4967406;28;20214;-83
2022/05/01 03:51:57;;;;;;;10.17;9.17;;;8.20;99.90;;;;;;4946655;28;20202;-83
2022/05/01 03:54:25;;;;;;;14.30;10.30;;;8.20;99.90;;;;;;4968808;28;20193;-83
2022/05/01 03:56:53;;;;;;;11.00;9.50;;;8.10;99.90;;;;;;4945041;29;20604;-83
2022/05/01 03:59:20;;;;;;;11.60;10.37;;;8.00;99.90;;;;;;4951553;28;20229;-83
2022/05/01 04:01:48;;;;;;;13.27;9.27;;;7.90;99.90;;;;;;4967190;28;20198;-83
2022/05/01 04:04:16;;;;;;;10.00;9.00;;;8.00;99.90;;;;;;4953435;28;20572;-83
2022/05/01 04:06:43;;;;;;;10.97;9.60;;;7.90;99.90;;;;;;4953198;28;20206;-83
2022/05/01 04:09:12;;;;;;;10.90;9.67;;;7.70;99.90;;;;;;4966206;28;20237;-83
2022/05/01 04:11:40;;;;;;;11.73;9.80;;;7.50;99.90;;;;;;4972942;23;20586;-77
2022/05/01 04:14:07;;;;;;;11.93;10.13;;;7.40;99.90;;;;;;4951385;29;20209;-77
2022/05/01 04:16:34;;;;;;;13.63;10.40;;;7.60;99.90;;;;;;4949915;29;20252;-77
2022/05/01 04:19:02;;;;;;;11.33;10.03;;;7.70;99.90;;;;;;4951722;28;20210;-77
2022/05/01 04:21:32;;;;;;;10.93;9.77;;;7.70;99.90;;;;;;4960361;28;20226;-77
2022/05/01 04:23:59;;;;;;;10.40;9.20;;;7.70;99.90;;;;;;4932532;29;20210;-77
2022/05/01 04:26:28;;;;;;;12.27;9.67;;;7.70;99.90;;;;;;4944520;28;20405;-77
2022/05/01 04:31:40;;;;;;;10.77;9.17;;;7.50;99.90;;;;;;4933464;29;20222;-79
2022/05/01 04:34:07;;;;;;;12.30;9.30;;;7.50;99.90;;;;;;4952041;28;20229;-79
2022/05/01 04:36:35;;;;;;;11.60;9.77;;;7.60;99.90;;;;;;4936587;29;20198;-79
2022/05/01 04:39:02;;;;;;;11.20;9.50;;;7.60;99.90;;;;;;4935396;29;20249;-79
2022/05/01 04:41:31;;;;;;;11.67;9.00;;;7.70;99.90;;;;;;4935077;29;20712;-78
2022/05/01 04:43:58;;;;;;;12.83;10.53;;;7.60;99.90;;;;;;4951147;28;20209;-79
2022/05/01 04:46:26;;;;;;;10.30;8.50;;;7.60;99.90;;;;;;4932708;29;20207;-78
2022/05/01 04:48:54;;;;;;;9.93;8.93;;;7.70;99.90;;;;;;4950024;29;20798;-78
2022/05/01 04:51:21;;;;;;;10.73;9.20;;;7.80;99.90;;;;;;4936006;29;20221;-79
2022/05/01 04:53:49;;;;;;;10.53;8.93;;;7.90;99.90;;;;;;4948894;28;20210;-79
2022/05/01 04:58:59;;;;;;;10.37;8.90;;;8.00;99.90;;;;;;4931281;29;20203;-78
2022/05/01 05:01:26;;;;;;;9.13;8.20;;;8.00;99.90;;;;;;4932457;29;20230;-78
2022/05/01 05:03:54;;;;;;;10.20;9.20;;;8.10;99.90;;;;;;4959635;28;20209;-78
2022/05/01 05:06:23;;;;;;;9.83;8.80;;;8.10;99.90;;;;;;4941076;29;20206;-78
2022/05/01 05:11:37;;;;;;;11.10;9.03;;;8.20;99.90;;;;;;4961588;28;20218;-78
2022/05/01 05:14:06;;;;;;;9.37;8.47;;;8.30;99.90;;;;;;4948938;29;20198;-78
2022/05/01 05:16:33;;;;;;;11.67;10.07;;;8.40;99.90;;;;;;4959273;28;20198;-78
2022/05/01 05:19:01;;;;;;;10.47;9.37;;;8.30;99.90;;;;;;4954147;29;20206;-79
2022/05/01 05:21:28;;;;;;;12.43;9.47;;;8.30;99.90;;;;;;4934907;29;20231;-79
2022/05/01 05:23:56;;;;;;;12.53;10.80;;;8.30;99.90;;;;;;4936171;29;20206;-79
2022/05/01 05:26:23;;;;;;;11.40;10.20;;;8.40;99.90;;;;;;4935653;29;20672;-79
2022/05/01 05:28:50;;;;;;;11.50;10.07;;;8.50;99.90;;;;;;4952212;28;20219;-79
2022/05/01 05:31:19;;;;;;;11.87;10.67;;;8.60;99.90;;;;;;4936980;29;20695;-79
2022/05/01 05:33:46;;;;;;;11.77;10.57;;;8.60;99.90;;;;;;4937072;29;20652;-79
2022/05/01 05:36:14;;;;;;;11.20;10.10;;;8.60;99.90;;;;;;4938847;29;20213;-79
2022/05/01 05:38:41;;;;;;;12.23;10.90;;;8.70;99.90;;;;;;4939601;29;20207;-79
2022/05/01 05:41:09;;;;;;;12.73;10.93;;;8.90;99.90;;;;;;4951556;28;20230;-79
2022/05/01 05:43:36;;;;;;;12.00;10.07;;;8.90;99.90;;;;;;4939993;29;20565;-79
2022/05/01 05:46:03;;;;;;;13.50;10.90;;;8.90;99.90;;;;;;4948442;28;20203;-79
2022/05/01 05:48:32;;;;;;;12.83;11.53;;;9.00;99.90;;;;;;4952577;29;20209;-79
2022/05/01 05:51:00;;;;;;;12.10;10.50;;;9.00;99.90;;;;;;4955358;29;20226;-79
2022/05/01 05:53:27;;;;;;;13.93;11.80;;;8.90;99.90;;;;;;4936911;28;20207;-79
2022/05/01 05:55:55;;;;;;;13.77;11.17;;;8.90;99.90;;;;;;4948770;29;20206;-79
2022/05/01 05:58:23;;;;;;;13.37;11.10;;;8.90;99.90;;;;;;4938135;28;20221;-79
2022/05/01 06:00:50;;;;;;;12.60;11.20;;;8.90;99.90;;;;;;4938915;28;20237;-79
2022/05/01 06:03:19;;;;;;;12.30;10.73;;;8.90;99.90;;;;;;4955562;29;20206;-79
2022/05/01 06:05:48;;;;;;;12.40;11.10;;;8.90;99.90;;;;;;4947321;29;20206;-79
2022/05/01 06:08:16;;;;;;;12.63;11.33;;;9.00;99.90;;;;;;4939773;29;20194;-79
2022/05/01 06:10:43;;;;;;;13.03;11.63;;;8.90;99.90;;;;;;4938841;29;20234;-79
2022/05/01 06:13:11;;;;;;;13.10;11.53;;;9.00;99.90;;;;;;4938150;29;20672;-79
2022/05/01 06:15:38;;;;;;;13.80;11.60;;;9.00;99.90;;;;;;4938023;29;20206;-79
2022/05/01 06:18:06;;;;;;;12.53;11.23;;;9.10;99.90;;;;;;4931635;29;20206;-79
2022/05/01 06:20:33;;;;;;;11.93;10.73;;;9.10;99.90;;;;;;4938905;29;20580;-79
2022/05/01 06:23:02;;;;;;;14.13;11.80;;;9.10;99.90;;;;;;4955826;28;20552;-79
2022/05/01 06:25:30;;;;;;;13.03;11.70;;;9.20;99.90;;;;;;4956210;28;20218;-79
2022/05/01 06:27:57;;;;;;;13.70;11.50;;;9.30;99.90;;;;;;4936747;29;20222;-79
2022/05/01 06:30:25;;;;;;;13.20;11.80;;;9.50;99.90;;;;;;4938396;29;20233;-79
2022/05/01 06:32:52;;;;;;;13.07;11.37;;;9.50;99.90;;;;;;4939965;29;20218;-79
2022/05/01 06:35:20;;;;;;;12.47;11.17;;;9.50;99.90;;;;;;4937220;29;20202;-79
2022/05/01 06:37:47;;;;;;;12.90;10.73;;;9.70;99.90;;;;;;4940050;29;20203;-79
2022/05/01 06:40:16;;;;;;;13.43;10.57;;;10.10;99.90;;;;;;4939804;29;20334;-79
2022/05/01 06:42:43;;;;;;;12.23;11.07;;;10.30;99.90;;;;;;4938597;29;20203;-79
2022/05/01 06:45:11;;;;;;;12.33;10.93;;;10.40;99.90;;;;;;4938533;29;20211;-79
2022/05/01 06:47:39;;;;;;;11.53;9.57;;;10.60;99.90;;;;;;4931437;29;20207;-79
2022/05/01 06:50:07;;;;;;;11.57;10.37;;;10.70;99.90;;;;;;4934528;29;20231;-79
2022/05/01 06:52:37;;;;;;;12.70;10.73;;;10.80;99.90;;;;;;4939470;29;20661;-79
2022/05/01 06:55:06;;;;;;;10.57;9.47;;;10.90;99.90;;;;;;4939921;29;20203;-79
2022/05/01 06:57:34;;;;;;;10.77;9.67;;;11.00;99.90;;;;;;4952124;28;20203;-79
2022/05/01 07:00:02;;;;;;;10.07;9.07;;;11.10;99.90;;;;;;4936817;28;20207;-79
2022/05/01 07:02:30;;;;;;;12.37;9.07;;;11.10;99.90;;;;;;4940384;29;20229;-79
2022/05/01 07:04:58;;;;;;;10.97;9.73;;;11.20;99.90;;;;;;4936475;29;20207;-80
2022/05/01 07:07:26;;;;;;;12.40;10.03;;;11.30;99.90;;;;;;4936023;29;20228;-79
2022/05/01 07:09:53;;;;;;;12.70;9.77;;;11.00;99.90;;;;;;4939673;29;20206;-79
2022/05/01 07:12:20;;;;;;;10.43;9.30;;;11.00;99.90;;;;;;4941382;28;20926;-79
2022/05/01 07:14:50;;;;;;;11.03;9.80;;;10.80;99.90;;;;;;4935928;29;20199;-79
2022/05/01 07:17:17;;;;;;;10.87;9.50;;;10.80;99.90;;;;;;4934042;29;20678;-79
2022/05/01 07:19:44;;;;;;;10.63;9.57;;;11.00;99.90;;;;;;4936077;29;20230;-79
2022/05/01 07:22:13;;;;;;;14.10;10.23;;;10.80;99.90;;;;;;4934080;29;20234;-79
2022/05/01 07:24:41;;;;;;;10.70;9.60;;;11.00;99.90;;;;;;4938086;29;20727;-79
2022/05/01 07:27:08;;;;;;;12.07;10.13;;;11.10;99.90;;;;;;4954447;28;20203;-79
2022/05/01 07:29:36;;;;;;;10.33;9.40;;;11.00;99.90;;;;;;4932673;29;20199;-79
2022/05/01 07:32:05;;;;;;;11.13;9.47;;;11.30;99.90;;;;;;4954250;28;20222;-79
2022/05/01 07:34:33;;;;;;;11.23;9.87;;;11.60;99.90;;;;;;4953151;29;20203;-79
2022/05/01 07:37:01;;;;;;;11.57;9.77;;;11.70;99.90;;;;;;4933184;29;20202;-79
2022/05/01 07:39:28;;;;;;;13.97;10.20;;;11.90;99.90;;;;;;4938886;29;20657;-79
2022/05/01 07:41:56;;;;;;;12.67;9.77;;;11.70;99.90;;;;;;4954756;29;20222;-79
2022/05/01 07:44:26;;;;;;;9.90;8.83;;;11.60;99.90;;;;;;4938765;29;20566;-79
2022/05/01 07:46:53;;;;;;;10.33;9.23;;;11.90;99.90;;;;;;4929999;29;20207;-79
2022/05/01 07:49:22;;;;;;;11.50;10.27;;;11.90;99.90;;;;;;4936280;29;20653;-79
2022/05/01 07:51:49;;;;;;;11.03;10.03;;;12.00;99.90;;;;;;4938830;29;20218;-79
2022/05/01 07:54:17;;;;;;;13.03;10.13;;;12.10;99.90;;;;;;4952216;28;20657;-79
2022/05/01 07:56:45;;;;;;;9.88;8.98;;;11.90;99.90;;;;;;4936095;29;20206;-79
2022/05/01 07:59:14;;;;;;;10.17;8.57;;;12.20;99.90;;;;;;4946507;28;20222;-79
2022/05/01 08:01:41;;;;;;;11.67;9.87;;;12.40;99.90;;;;;;4930198;29;20231;-79
2022/05/01 08:04:29;;;;;;;11.98;9.30;;;12.40;99.90;;;;;;4955145;28;20206;-79
2022/05/01 08:06:59;;;;;;;10.45;9.48;;;12.60;99.90;;;;;;4937915;29;20207;-79
2022/05/01 08:09:28;;;;;;;9.93;8.90;;;12.70;99.80;;;;;;4930943;29;20206;-79
2022/05/01 08:11:58;;;;;;;11.95;9.73;;;12.80;99.90;;;;;;4931370;29;20234;-79
2022/05/01 08:14:25;;;;;;;10.73;9.63;;;12.90;99.70;;;;;;4939399;29;20213;-79
2022/05/01 08:16:53;;;;;;;14.07;9.80;;;13.00;99.30;;;;;;4954176;29;20198;-79
2022/05/01 08:22:07;;;;;;;10.90;9.77;;;12.90;98.80;;;;;;4954724;29;20214;-80
2022/05/01 08:24:36;;;;;;;12.43;9.70;;;12.90;98.40;;;;;;4952106;29;20214;-79
2022/05/01 08:27:08;;;;;;;9.90;9.00;;;12.90;98.80;;;;;;4949380;28;20215;-79
2022/05/01 08:29:37;;;;;;;10.73;9.73;;;13.10;99.40;;;;;;4938293;29;20194;-79
2022/05/01 08:32:05;;;;;;;10.98;9.20;;;13.10;98.90;;;;;;4933022;29;20210;-79
2022/05/01 08:34:33;;;;;;;11.55;10.35;;;13.10;99.20;;;;;;4939205;29;20206;-79
2022/05/01 08:37:00;;;;;;;10.95;9.85;;;12.90;99.80;;;;;;4939014;29;20206;-80
2022/05/01 08:39:31;;;;;;;10.52;9.40;;;12.90;99.90;;;;;;4936766;29;20272;-79
2022/05/01 08:42:02;;;;;;;10.27;9.02;;;13.10;98.90;;;;;;4939644;29;20214;-79
2022/05/01 08:44:33;;;;;;;10.13;8.68;;;13.20;98.20;;;;;;4942565;29;20203;-82
2022/05/01 08:47:12;;;;;;;10.57;9.57;;;13.40;97.80;;;;;;4925467;29;20206;-82
2022/05/01 08:49:42;;;;;;;10.38;9.35;;;13.40;97.70;;;;;;4934806;29;20205;-82
2022/05/01 08:52:11;;;;;;;11.48;10.13;;;13.50;97.70;;;;;;4929239;29;20711;-82
2022/05/01 08:54:41;;;;;;;10.63;9.50;;;13.40;97.40;;;;;;4938119;29;20214;-82
2022/05/01 08:57:09;;;;;;;10.60;9.20;;;13.40;97.80;;;;;;4934926;29;20570;-81
2022/05/01 08:59:37;;;;;;;10.32;9.27;;;13.40;98.10;;;;;;4950330;28;20195;-82
2022/05/01 09:02:08;;;;;;;11.20;9.05;;;13.40;98.30;;;;;;4936767;29;20677;-82
2022/05/01 09:04:36;;;;;;;9.57;8.68;;;13.60;97.90;;;;;;4936651;29;20206;-82
2022/05/01 09:07:04;;;;;;;9.75;8.75;;;13.60;97.10;;;;;;4938110;29;20221;-82
2022/05/01 09:09:33;;;;;;;9.98;8.85;;;13.80;96.80;;;;;;4950854;28;20577;-82
2022/05/01 09:14:49;;;;;;;10.57;9.15;;;13.60;97.70;;;;;;4941870;29;20202;-79
2022/05/01 09:17:19;;;;;;;10.00;9.00;;;13.60;97.60;;;;;;4940230;29;20239;-82
2022/05/01 09:19:50;;;;;;;10.07;9.00;;;13.70;97.70;;;;;;4956789;29;20700;-82
2022/05/01 09:22:18;;;;;;;8.88;8.07;;;13.60;97.70;;;;;;4941279;29;20238;-82
2022/05/01 09:24:48;;;;;;;9.68;8.63;;;13.60;97.70;;;;;;4942356;29;20203;-82
2022/05/01 09:27:27;;;;;;;11.55;9.00;;;13.40;96.90;;;;;;4943241;29;20201;-82
2022/05/01 09:30:11;;;;;;;8.55;7.70;;;13.60;97.00;;;;;;4924336;29;20221;-82
2022/05/01 09:32:42;;;;;;;9.45;8.55;;;13.50;97.50;;;;;;4923348;29;20218;-82
2022/05/01 09:35:13;;;;;;;11.07;9.77;;;13.30;98.10;;;;;;4926540;29;20194;-82
2022/05/01 09:37:41;;;;;;;10.65;8.27;;;13.60;96.90;;;;;;4941851;29;20213;-82
2022/05/01 09:40:11;;;;;;;9.55;8.63;;;13.80;96.30;;;;;;4955088;28;20231;-80
2022/05/01 09:42:40;;;;;;;10.07;8.50;;;14.10;95.80;;;;;;4939457;29;20581;-80
2022/05/01 09:45:11;;;;;;;9.10;8.18;;;14.00;95.30;;;;;;4951842;29;20210;-80
2022/05/01 09:47:40;;;;;;;8.80;7.93;;;14.10;95.50;;;;;;4942697;29;20206;-79
2022/05/01 09:50:09;;;;;;;9.35;8.27;;;14.30;95.20;;;;;;4953188;29;20240;-80
2022/05/01 09:53:02;;;;;;;9.40;8.50;;;14.20;94.80;;;;;;4953340;28;20195;-80
2022/05/01 09:55:30;;;;;;;10.38;8.60;;;14.20;95.00;;;;;;4919780;29;20217;-82
2022/05/01 09:58:07;;;;;;;10.50;9.02;;;14.40;95.10;;;;;;4942728;29;20202;-82
2022/05/01 10:00:39;;;;;;;8.95;8.05;;;14.10;95.20;;;;;;4942185;29;20226;-82
2022/05/01 10:03:25;;;;;;;9.23;8.32;;;14.20;94.70;;;;;;4957711;29;20695;-82
2022/05/01 10:05:58;;;;;;;11.88;8.25;;;14.10;95.10;;;;;;4941860;29;20202;-82
2022/05/01 10:08:26;;;;;;;8.95;8.05;;;14.20;96.10;;;;;;4940107;29;20226;-82
2022/05/01 10:10:58;;;;;;;9.65;8.65;;;14.40;95.20;;;;;;4941536;29;20237;-82
2022/05/01 10:13:28;;;;;;;10.93;8.82;;;14.60;94.80;;;;;;4941210;29;20214;-82
2022/05/01 10:15:56;;;;;;;9.25;8.25;;;14.30;94.90;;;;;;4940686;29;20214;-82
2022/05/01 10:18:24;;;;;;;10.02;9.02;;;14.50;95.90;;;;;;4942428;29;20202;-81
2022/05/01 10:20:52;;;;;;;10.40;9.30;;;14.50;94.90;;;;;;4941974;29;20226;-81
2022/05/01 10:23:20;;;;;;;11.13;8.77;;;14.70;94.70;;;;;;4940562;29;20218;-81
2022/05/01 10:25:53;;;;;;;9.55;8.55;;;14.30;94.30;;;;;;4957638;29;20207;-81
2022/05/01 10:28:42;;;;;;;9.48;8.02;;;14.70;93.50;;;;;;4941083;29;20207;-80
2022/05/01 10:34:24;;;;;;;9.75;8.75;;;14.70;95.00;;;;;;4938168;29;20187;-81
2022/05/01 10:37:17;;;;;;;8.63;7.78;;;14.60;94.40;;;;;;4923567;29;20188;-80
2022/05/01 10:39:46;;;;;;;11.13;8.60;;;14.80;94.00;;;;;;4929360;29;20206;-80
2022/05/01 10:42:36;;;;;;;9.73;8.15;;;14.40;92.90;;;;;;4941275;29;20198;-80
2022/05/01 10:45:44;;;;;;;10.05;9.15;;;14.40;94.20;;;;;;4941763;29;20675;-80
2022/05/01 10:48:15;;;;;;;10.63;8.98;;;14.70;93.10;;;;;;4956771;29;20194;-80
2022/05/01 10:50:43;;;;;;;10.48;9.45;;;14.70;92.10;;;;;;4937793;29;20560;-81
2022/05/01 10:53:13;;;;;;;9.35;8.35;;;14.90;92.10;;;;;;4980428;23;20227;-82
2022/05/01 10:55:52;;;;;;;9.75;8.75;;;15.10;90.80;;;;;;4969042;28;20206;-82
2022/05/01 10:58:27;;;;;;;9.35;8.35;;;15.10;92.10;;;;;;4967141;28;20220;-82
2022/05/01 11:00:57;;;;;;;10.93;9.82;;;14.90;92.80;;;;;;4965564;28;20591;-82
2022/05/01 11:03:27;;;;;;;9.50;8.57;;;15.00;92.10;;;;;;4957820;28;20232;-82
2022/05/01 11:05:57;;;;;;;10.27;9.07;;;14.80;91.50;;;;;;4954301;29;20202;-83
2022/05/01 11:08:27;;;;;;;10.30;9.23;;;15.20;90.50;;;;;;4969884;28;20206;-82
2022/05/01 11:10:58;;;;;;;10.95;9.82;;;15.30;91.10;;;;;;4961307;28;20547;-82
2022/05/01 11:13:29;;;;;;;11.50;10.35;;;15.10;90.10;;;;;;4969057;28;20225;-82
2022/05/01 11:15:58;;;;;;;12.07;10.13;;;14.90;90.60;;;;;;4974521;28;20220;-82
2022/05/01 11:18:29;;;;;;;10.98;9.98;;;15.00;91.30;;;;;;4972950;28;20687;-82
2022/05/01 11:21:16;;;;;;;11.18;10.00;;;15.10;90.20;;;;;;4956201;28;20213;-82
2022/05/01 11:23:44;;;;;;;11.05;9.95;;;15.30;90.40;;;;;;4969000;28;20218;-82
2022/05/01 11:26:17;;;;;;;10.77;9.70;;;15.30;90.60;;;;;;4966202;28;20218;-82
2022/05/01 11:28:46;;;;;;;11.60;10.60;;;15.20;91.30;;;;;;4934453;29;20198;-82
2022/05/01 11:31:46;;;;;;;11.48;10.38;;;15.30;91.90;;;;;;4959622;28;20209;-82
2022/05/01 11:34:36;;;;;;;10.55;9.65;;;15.40;91.70;;;;;;4936066;29;20191;-83
2022/05/01 11:37:07;;;;;;;11.13;10.05;;;15.40;91.70;;;;;;4941848;29;20206;-83
2022/05/01 11:40:10;;;;;;;11.02;10.02;;;15.80;91.30;;;;;;4966150;28;20225;-82
2022/05/01 11:42:38;;;;;;;10.93;9.85;;;15.80;90.90;;;;;;4981287;28;20583;-83
2022/05/01 11:45:08;;;;;;;10.80;9.80;;;16.20;90.40;;;;;;4973226;28;20231;-82
2022/05/01 11:47:38;;;;;;;11.15;10.05;;;16.00;91.00;;;;;;4980633;28;20212;-82
2022/05/01 11:50:06;;;;;;;12.75;11.45;;;16.10;90.30;;;;;;4965949;28;20201;-81
2022/05/01 11:52:37;;;;;;;11.82;10.63;;;16.10;87.30;;;;;;4975921;28;20242;-80
2022/05/01 11:55:08;;;;;;;11.40;10.32;;;15.80;86.30;;;;;;4962330;28;20209;-81
2022/05/01 12:03:11;;;;;;;11.27;10.02;;;15.40;90.20;;;;;;4973421;28;20577;-81
2022/05/01 12:05:45;;;;;;;10.98;9.98;;;15.80;90.10;;;;;;4974711;28;20192;-83
2022/05/01 12:08:20;;;;;;;10.50;9.52;;;16.00;90.10;;;;;;4973891;28;20197;-82
2022/05/01 12:11:03;;;;;;;11.23;10.13;;;15.30;90.90;;;;;;4965466;28;20201;-82
2022/05/01 12:13:32;;;;;;;10.63;9.60;;;15.80;91.30;;;;;;4953724;28;20226;-82
2022/05/01 12:15:59;;;;;;;11.38;9.52;;;16.00;90.00;;;;;;4962847;28;20588;-82
2022/05/01 12:18:28;;;;;;;9.80;8.80;;;16.20;87.90;;;;;;4970488;28;20221;-83
2022/05/01 12:20:55;;;;;;;10.80;9.73;;;16.30;87.80;;;;;;4963967;28;20197;-83
2022/05/01 12:23:25;;;;;;;10.18;9.27;;;16.40;88.10;;;;;;4983903;28;20568;-82
2022/05/01 12:25:54;;;;;;;9.93;8.93;;;16.20;87.00;;;;;;4937052;29;20209;-83
2022/05/01 12:28:22;;;;;;;9.95;9.05;;;16.30;88.30;;;;;;4966007;28;20216;-83
2022/05/01 12:30:51;;;;;;;11.23;10.30;;;16.60;87.60;;;;;;4969529;28;20209;-83
2022/05/01 12:33:19;;;;;;;11.80;10.65;;;16.10;84.40;;;;;;4961545;28;20236;-83
2022/05/01 12:35:58;;;;;;;10.98;9.88;;;15.70;85.60;;;;;;4971336;28;20201;-82
2022/05/01 12:38:28;;;;;;;11.15;10.00;;;15.70;87.50;;;;;;4972195;28;20201;-83
2022/05/01 12:43:58;;;;;;;11.20;10.23;;;16.20;87.50;;;;;;4965066;28;20710;-83
2022/05/01 12:46:28;;;;;;;10.43;9.43;;;16.10;85.80;;;;;;4971588;28;20209;-82
2022/05/01 12:48:58;;;;;;;11.07;10.07;;;16.20;86.30;;;;;;4973444;28;20202;-82
2022/05/01 12:51:40;;;;;;;11.50;9.82;;;16.20;85.10;;;;;;4956135;29;20201;-82
2022/05/01 12:54:09;;;;;;;10.60;9.48;;;16.00;86.50;;;;;;4976450;28;20208;-82
2022/05/01 12:56:37;;;;;;;11.25;10.15;;;15.90;86.10;;;;;;4959796;28;20197;-83
2022/05/01 12:59:24;;;;;;;10.90;9.98;;;15.90;85.90;;;;;;4952952;29;20221;-82
2022/05/01 13:01:52;;;;;;;10.73;9.65;;;15.60;86.10;;;;;;4942666;28;20228;-82
2022/05/01 13:04:27;;;;;;;10.98;9.93;;;15.80;85.50;;;;;;4969207;28;20218;-82
2022/05/01 13:06:57;;;;;;;12.18;10.20;;;15.80;85.00;;;;;;4992731;28;20196;-82
2022/05/01 13:09:27;;;;;;;12.18;9.98;;;15.70;85.10;;;;;;4991695;28;20197;-83
2022/05/01 13:12:03;;;;;;;10.68;9.68;;;15.80;85.00;;;;;;4972388;28;20679;-82
2022/05/01 13:14:34;;;;;;;9.95;9.00;;;15.90;85.00;;;;;;4961001;28;20198;-83
2022/05/01 13:17:09;;;;;;;11.05;10.05;;;16.20;84.50;;;;;;4957953;29;20194;-83
2022/05/01 13:19:38;;;;;;;11.90;10.70;;;16.00;86.30;;;;;;4956570;29;20675;-82
2022/05/01 13:22:09;;;;;;;11.38;10.32;;;15.60;88.00;;;;;;4971983;28;20225;-83
2022/05/01 13:24:37;;;;;;;10.20;9.18;;;15.90;83.90;;;;;;4967797;28;20229;-82
2022/05/01 13:27:07;;;;;;;9.93;8.95;;;15.80;83.90;;;;;;4956372;29;20224;-83